sensor_id;sensor_type;location;lat;lon;timestamp;P1;durP1;ratioP1;P2;durP2;ratioP2
49458;SDS011;35354;51.296;16.924;2022-08-27T00:02:04;8.52;;;5.28;;
49458;SDS011;35354;51.296;16.924;2022-08-27T00:04:30;9.82;;;6.05;;
49458;SDS011;35354;51.296;16.924;2022-08-27T00:06:55;12.90;;;5.72;;
49458;SDS011;35354;51.296;16.924;2022-08-27T00:09:21;11.35;;;6.28;;
49458;SDS011;35354;51.296;16.924;2022-08-27T00:11:47;9.70;;;6.18;;
49458;SDS011;35354;51.296;16.924;2022-08-27T00:14:13;8.82;;;5.45;;
49458;SDS011;35354;51.296;16.924;2022-08-27T00:16:39;12.95;;;6.22;;
49458;SDS011;35354;51.296;16.924;2022-08-27T00:19:05;10.23;;;6.20;;
49458;SDS011;35354;51.296;16.924;2022-08-27T00:21:30;10.52;;;5.90;;
49458;SDS011;35354;51.296;16.924;2022-08-27T00:23:57;12.13;;;5.63;;
49458;SDS011;35354;51.296;16.924;2022-08-27T00:26:22;7.13;;;5.57;;
49458;SDS011;35354;51.296;16.924;2022-08-27T00:28:48;11.73;;;6.60;;
49458;SDS011;35354;51.296;16.924;2022-08-27T00:31:14;7.88;;;5.90;;
49458;SDS011;35354;51.296;16.924;2022-08-27T00:33:40;9.20;;;5.97;;
49458;SDS011;35354;51.296;16.924;2022-08-27T00:36:05;7.38;;;6.53;;
49458;SDS011;35354;51.296;16.924;2022-08-27T00:38:31;11.85;;;6.10;;
49458;SDS011;35354;51.296;16.924;2022-08-27T00:40:57;10.77;;;6.38;;
49458;SDS011;35354;51.296;16.924;2022-08-27T00:43:27;12.25;;;6.00;;
49458;SDS011;35354;51.296;16.924;2022-08-27T00:45:58;11.48;;;6.60;;
49458;SDS011;35354;51.296;16.924;2022-08-27T00:48:29;12.68;;;7.07;;
49458;SDS011;35354;51.296;16.924;2022-08-27T00:50:59;7.93;;;6.60;;
49458;SDS011;35354;51.296;16.924;2022-08-27T00:53:25;12.02;;;6.72;;
49458;SDS011;35354;51.296;16.924;2022-08-27T00:56:05;10.77;;;6.85;;
49458;SDS011;35354;51.296;16.924;2022-08-27T00:58:37;9.20;;;6.78;;
49458;SDS011;35354;51.296;16.924;2022-08-27T01:01:07;11.98;;;6.53;;
49458;SDS011;35354;51.296;16.924;2022-08-27T01:03:34;9.73;;;6.57;;
49458;SDS011;35354;51.296;16.924;2022-08-27T01:06:00;10.90;;;6.97;;
49458;SDS011;35354;51.296;16.924;2022-08-27T01:08:30;8.80;;;6.63;;
49458;SDS011;35354;51.296;16.924;2022-08-27T01:10:58;7.68;;;6.82;;
49458;SDS011;35354;51.296;16.924;2022-08-27T01:13:27;10.25;;;6.97;;
49458;SDS011;35354;51.296;16.924;2022-08-27T01:18:23;10.98;;;6.68;;
49458;SDS011;35354;51.296;16.924;2022-08-27T01:21:00;12.65;;;7.00;;
49458;SDS011;35354;51.296;16.924;2022-08-27T01:26:01;11.77;;;7.03;;
49458;SDS011;35354;51.296;16.924;2022-08-27T01:28:30;10.55;;;6.75;;
49458;SDS011;35354;51.296;16.924;2022-08-27T01:30:57;10.13;;;7.00;;
49458;SDS011;35354;51.296;16.924;2022-08-27T01:33:22;11.40;;;6.93;;
49458;SDS011;35354;51.296;16.924;2022-08-27T01:35:48;11.07;;;7.22;;
49458;SDS011;35354;51.296;16.924;2022-08-27T01:38:14;10.40;;;6.95;;
49458;SDS011;35354;51.296;16.924;2022-08-27T01:40:41;9.60;;;6.32;;
49458;SDS011;35354;51.296;16.924;2022-08-27T01:43:07;9.00;;;8.02;;
49458;SDS011;35354;51.296;16.924;2022-08-27T01:45:34;13.82;;;7.22;;
49458;SDS011;35354;51.296;16.924;2022-08-27T01:48:02;12.35;;;7.45;;
49458;SDS011;35354;51.296;16.924;2022-08-27T01:50:31;12.68;;;7.43;;
49458;SDS011;35354;51.296;16.924;2022-08-27T01:53:04;14.02;;;7.80;;
49458;SDS011;35354;51.296;16.924;2022-08-27T01:55:33;14.48;;;8.35;;
49458;SDS011;35354;51.296;16.924;2022-08-27T01:57:59;8.65;;;7.25;;
49458;SDS011;35354;51.296;16.924;2022-08-27T02:00:29;12.10;;;7.40;;
49458;SDS011;35354;51.296;16.924;2022-08-27T02:02:57;11.23;;;6.93;;
49458;SDS011;35354;51.296;16.924;2022-08-27T02:05:23;10.45;;;7.55;;
49458;SDS011;35354;51.296;16.924;2022-08-27T02:07:48;10.10;;;7.45;;
49458;SDS011;35354;51.296;16.924;2022-08-27T02:10:16;9.82;;;7.28;;
49458;SDS011;35354;51.296;16.924;2022-08-27T02:12:44;10.70;;;7.75;;
49458;SDS011;35354;51.296;16.924;2022-08-27T02:15:10;10.75;;;7.40;;
49458;SDS011;35354;51.296;16.924;2022-08-27T02:17:36;12.13;;;7.70;;
49458;SDS011;35354;51.296;16.924;2022-08-27T02:20:03;12.40;;;7.60;;
49458;SDS011;35354;51.296;16.924;2022-08-27T02:22:29;14.65;;;7.88;;
49458;SDS011;35354;51.296;16.924;2022-08-27T02:24:55;11.10;;;7.40;;
49458;SDS011;35354;51.296;16.924;2022-08-27T02:27:20;13.05;;;7.80;;
49458;SDS011;35354;51.296;16.924;2022-08-27T02:29:46;9.15;;;7.75;;
49458;SDS011;35354;51.296;16.924;2022-08-27T02:32:14;11.23;;;7.05;;
49458;SDS011;35354;51.296;16.924;2022-08-27T02:34:40;9.32;;;7.93;;
49458;SDS011;35354;51.296;16.924;2022-08-27T02:37:05;14.88;;;8.15;;
49458;SDS011;35354;51.296;16.924;2022-08-27T02:39:31;13.95;;;7.88;;
49458;SDS011;35354;51.296;16.924;2022-08-27T02:41:57;10.65;;;7.65;;
49458;SDS011;35354;51.296;16.924;2022-08-27T02:44:23;10.85;;;7.35;;
49458;SDS011;35354;51.296;16.924;2022-08-27T02:46:48;11.95;;;7.22;;
49458;SDS011;35354;51.296;16.924;2022-08-27T02:49:14;10.95;;;7.63;;
49458;SDS011;35354;51.296;16.924;2022-08-27T02:51:39;14.90;;;8.02;;
49458;SDS011;35354;51.296;16.924;2022-08-27T02:54:05;10.43;;;7.43;;
49458;SDS011;35354;51.296;16.924;2022-08-27T02:56:31;11.00;;;8.15;;
49458;SDS011;35354;51.296;16.924;2022-08-27T02:58:56;9.93;;;7.35;;
49458;SDS011;35354;51.296;16.924;2022-08-27T03:01:23;12.20;;;8.45;;
49458;SDS011;35354;51.296;16.924;2022-08-27T03:03:48;12.00;;;7.53;;
49458;SDS011;35354;51.296;16.924;2022-08-27T03:06:13;13.70;;;7.85;;
49458;SDS011;35354;51.296;16.924;2022-08-27T03:08:39;11.88;;;7.57;;
49458;SDS011;35354;51.296;16.924;2022-08-27T03:11:04;12.07;;;9.05;;
49458;SDS011;35354;51.296;16.924;2022-08-27T03:13:34;10.40;;;7.50;;
49458;SDS011;35354;51.296;16.924;2022-08-27T03:16:02;9.70;;;7.57;;
49458;SDS011;35354;51.296;16.924;2022-08-27T03:18:27;16.25;;;8.50;;
49458;SDS011;35354;51.296;16.924;2022-08-27T03:20:53;10.32;;;8.05;;
49458;SDS011;35354;51.296;16.924;2022-08-27T03:23:22;14.07;;;8.82;;
49458;SDS011;35354;51.296;16.924;2022-08-27T03:25:50;13.23;;;9.02;;
49458;SDS011;35354;51.296;16.924;2022-08-27T03:28:19;11.68;;;7.85;;
49458;SDS011;35354;51.296;16.924;2022-08-27T03:30:47;14.88;;;8.20;;
49458;SDS011;35354;51.296;16.924;2022-08-27T03:33:13;11.20;;;7.95;;
49458;SDS011;35354;51.296;16.924;2022-08-27T03:35:39;10.45;;;7.97;;
49458;SDS011;35354;51.296;16.924;2022-08-27T03:38:04;10.85;;;8.45;;
49458;SDS011;35354;51.296;16.924;2022-08-27T03:40:30;15.60;;;8.52;;
49458;SDS011;35354;51.296;16.924;2022-08-27T03:42:56;13.52;;;9.05;;
49458;SDS011;35354;51.296;16.924;2022-08-27T03:45:21;15.52;;;8.18;;
49458;SDS011;35354;51.296;16.924;2022-08-27T03:47:46;13.00;;;8.65;;
49458;SDS011;35354;51.296;16.924;2022-08-27T03:50:12;10.98;;;7.88;;
49458;SDS011;35354;51.296;16.924;2022-08-27T03:52:37;12.52;;;8.48;;
49458;SDS011;35354;51.296;16.924;2022-08-27T03:55:04;11.82;;;8.50;;
49458;SDS011;35354;51.296;16.924;2022-08-27T03:57:31;9.55;;;8.10;;
49458;SDS011;35354;51.296;16.924;2022-08-27T03:59:57;10.50;;;7.93;;
49458;SDS011;35354;51.296;16.924;2022-08-27T04:02:23;15.40;;;8.95;;
49458;SDS011;35354;51.296;16.924;2022-08-27T04:04:50;13.48;;;9.18;;
49458;SDS011;35354;51.296;16.924;2022-08-27T04:07:15;12.60;;;9.40;;
49458;SDS011;35354;51.296;16.924;2022-08-27T04:09:40;12.90;;;8.55;;
49458;SDS011;35354;51.296;16.924;2022-08-27T04:12:06;16.90;;;8.88;;
49458;SDS011;35354;51.296;16.924;2022-08-27T04:14:32;18.45;;;9.25;;
49458;SDS011;35354;51.296;16.924;2022-08-27T04:16:58;11.05;;;8.00;;
49458;SDS011;35354;51.296;16.924;2022-08-27T04:19:25;10.52;;;7.85;;
49458;SDS011;35354;51.296;16.924;2022-08-27T04:21:51;10.57;;;8.68;;
49458;SDS011;35354;51.296;16.924;2022-08-27T04:24:17;16.42;;;9.10;;
49458;SDS011;35354;51.296;16.924;2022-08-27T04:26:42;10.20;;;7.93;;
49458;SDS011;35354;51.296;16.924;2022-08-27T04:29:09;14.27;;;8.90;;
49458;SDS011;35354;51.296;16.924;2022-08-27T04:31:35;17.10;;;10.30;;
49458;SDS011;35354;51.296;16.924;2022-08-27T04:34:00;18.08;;;9.25;;
49458;SDS011;35354;51.296;16.924;2022-08-27T04:36:26;13.05;;;9.00;;
49458;SDS011;35354;51.296;16.924;2022-08-27T04:38:51;11.23;;;8.68;;
49458;SDS011;35354;51.296;16.924;2022-08-27T04:41:16;16.77;;;8.40;;
49458;SDS011;35354;51.296;16.924;2022-08-27T04:43:46;16.48;;;10.48;;
49458;SDS011;35354;51.296;16.924;2022-08-27T04:46:13;19.65;;;11.45;;
49458;SDS011;35354;51.296;16.924;2022-08-27T04:48:38;15.43;;;12.13;;
49458;SDS011;35354;51.296;16.924;2022-08-27T04:51:04;17.02;;;12.35;;
49458;SDS011;35354;51.296;16.924;2022-08-27T04:53:29;19.98;;;13.18;;
49458;SDS011;35354;51.296;16.924;2022-08-27T04:55:55;19.40;;;12.55;;
49458;SDS011;35354;51.296;16.924;2022-08-27T04:58:22;17.20;;;12.32;;
49458;SDS011;35354;51.296;16.924;2022-08-27T05:00:50;18.58;;;12.55;;
49458;SDS011;35354;51.296;16.924;2022-08-27T05:03:18;19.05;;;12.50;;
49458;SDS011;35354;51.296;16.924;2022-08-27T05:05:47;20.25;;;13.23;;
49458;SDS011;35354;51.296;16.924;2022-08-27T05:08:14;14.93;;;12.82;;
49458;SDS011;35354;51.296;16.924;2022-08-27T05:10:42;20.83;;;14.23;;
49458;SDS011;35354;51.296;16.924;2022-08-27T05:13:09;18.50;;;13.32;;
49458;SDS011;35354;51.296;16.924;2022-08-27T05:15:36;17.90;;;13.38;;
49458;SDS011;35354;51.296;16.924;2022-08-27T05:18:02;17.33;;;12.43;;
49458;SDS011;35354;51.296;16.924;2022-08-27T05:20:29;17.25;;;12.25;;
49458;SDS011;35354;51.296;16.924;2022-08-27T05:22:55;14.82;;;10.70;;
49458;SDS011;35354;51.296;16.924;2022-08-27T05:25:21;17.58;;;11.07;;
49458;SDS011;35354;51.296;16.924;2022-08-27T05:27:47;15.65;;;11.43;;
49458;SDS011;35354;51.296;16.924;2022-08-27T05:30:13;16.40;;;11.32;;
49458;SDS011;35354;51.296;16.924;2022-08-27T05:32:38;24.27;;;11.38;;
49458;SDS011;35354;51.296;16.924;2022-08-27T05:35:04;15.10;;;10.77;;
49458;SDS011;35354;51.296;16.924;2022-08-27T05:37:30;14.68;;;9.40;;
49458;SDS011;35354;51.296;16.924;2022-08-27T05:39:58;12.05;;;10.00;;
49458;SDS011;35354;51.296;16.924;2022-08-27T05:42:24;13.63;;;8.77;;
49458;SDS011;35354;51.296;16.924;2022-08-27T05:44:49;11.63;;;8.25;;
49458;SDS011;35354;51.296;16.924;2022-08-27T05:47:15;11.93;;;8.18;;
49458;SDS011;35354;51.296;16.924;2022-08-27T05:49:40;11.32;;;8.30;;
49458;SDS011;35354;51.296;16.924;2022-08-27T05:52:09;12.23;;;8.48;;
49458;SDS011;35354;51.296;16.924;2022-08-27T05:54:35;12.95;;;7.75;;
49458;SDS011;35354;51.296;16.924;2022-08-27T05:57:01;11.43;;;7.63;;
49458;SDS011;35354;51.296;16.924;2022-08-27T05:59:26;12.30;;;7.80;;
49458;SDS011;35354;51.296;16.924;2022-08-27T06:02:11;12.05;;;7.22;;
49458;SDS011;35354;51.296;16.924;2022-08-27T06:04:36;11.20;;;7.60;;
49458;SDS011;35354;51.296;16.924;2022-08-27T06:07:01;12.57;;;7.55;;
49458;SDS011;35354;51.296;16.924;2022-08-27T06:09:27;13.75;;;7.65;;
49458;SDS011;35354;51.296;16.924;2022-08-27T06:11:54;9.55;;;7.35;;
49458;SDS011;35354;51.296;16.924;2022-08-27T06:14:21;13.63;;;7.90;;
49458;SDS011;35354;51.296;16.924;2022-08-27T06:16:47;13.05;;;7.50;;
49458;SDS011;35354;51.296;16.924;2022-08-27T06:19:12;9.55;;;7.60;;
49458;SDS011;35354;51.296;16.924;2022-08-27T06:21:39;10.00;;;6.82;;
49458;SDS011;35354;51.296;16.924;2022-08-27T06:24:06;11.30;;;8.02;;
49458;SDS011;35354;51.296;16.924;2022-08-27T06:26:32;13.48;;;7.90;;
49458;SDS011;35354;51.296;16.924;2022-08-27T06:29:00;12.60;;;7.70;;
49458;SDS011;35354;51.296;16.924;2022-08-27T06:31:27;12.85;;;8.48;;
49458;SDS011;35354;51.296;16.924;2022-08-27T06:33:53;9.30;;;7.32;;
49458;SDS011;35354;51.296;16.924;2022-08-27T06:36:23;10.07;;;7.65;;
49458;SDS011;35354;51.296;16.924;2022-08-27T06:38:50;9.75;;;6.93;;
49458;SDS011;35354;51.296;16.924;2022-08-27T06:41:17;10.43;;;6.97;;
49458;SDS011;35354;51.296;16.924;2022-08-27T06:43:45;9.37;;;7.03;;
49458;SDS011;35354;51.296;16.924;2022-08-27T06:46:12;9.93;;;6.95;;
49458;SDS011;35354;51.296;16.924;2022-08-27T06:48:39;10.20;;;7.25;;
49458;SDS011;35354;51.296;16.924;2022-08-27T06:51:09;8.85;;;6.85;;
49458;SDS011;35354;51.296;16.924;2022-08-27T06:53:41;8.82;;;6.75;;
49458;SDS011;35354;51.296;16.924;2022-08-27T06:56:08;11.65;;;6.78;;
49458;SDS011;35354;51.296;16.924;2022-08-27T06:58:35;11.90;;;7.10;;
49458;SDS011;35354;51.296;16.924;2022-08-27T07:01:01;10.52;;;6.70;;
49458;SDS011;35354;51.296;16.924;2022-08-27T07:03:26;11.40;;;6.90;;
49458;SDS011;35354;51.296;16.924;2022-08-27T07:05:52;11.25;;;6.30;;
49458;SDS011;35354;51.296;16.924;2022-08-27T07:08:17;10.20;;;6.70;;
49458;SDS011;35354;51.296;16.924;2022-08-27T07:10:43;14.60;;;6.40;;
49458;SDS011;35354;51.296;16.924;2022-08-27T07:13:08;9.65;;;6.18;;
49458;SDS011;35354;51.296;16.924;2022-08-27T07:15:37;8.75;;;6.05;;
49458;SDS011;35354;51.296;16.924;2022-08-27T07:18:02;7.10;;;5.35;;
49458;SDS011;35354;51.296;16.924;2022-08-27T07:20:28;8.73;;;6.00;;
49458;SDS011;35354;51.296;16.924;2022-08-27T07:22:53;8.50;;;5.80;;
49458;SDS011;35354;51.296;16.924;2022-08-27T07:27:48;10.50;;;5.55;;
49458;SDS011;35354;51.296;16.924;2022-08-27T07:30:14;7.75;;;5.60;;
49458;SDS011;35354;51.296;16.924;2022-08-27T07:32:43;9.98;;;5.65;;
49458;SDS011;35354;51.296;16.924;2022-08-27T07:35:09;6.45;;;5.07;;
49458;SDS011;35354;51.296;16.924;2022-08-27T07:37:35;9.35;;;5.38;;
49458;SDS011;35354;51.296;16.924;2022-08-27T07:40:07;6.32;;;5.35;;
49458;SDS011;35354;51.296;16.924;2022-08-27T07:42:36;8.10;;;5.45;;
49458;SDS011;35354;51.296;16.924;2022-08-27T07:45:20;9.38;;;4.95;;
49458;SDS011;35354;51.296;16.924;2022-08-27T07:47:45;6.90;;;5.03;;
49458;SDS011;35354;51.296;16.924;2022-08-27T07:50:11;5.95;;;5.13;;
49458;SDS011;35354;51.296;16.924;2022-08-27T07:52:36;8.98;;;5.30;;
49458;SDS011;35354;51.296;16.924;2022-08-27T07:55:02;8.98;;;5.72;;
49458;SDS011;35354;51.296;16.924;2022-08-27T07:57:29;8.23;;;5.40;;
49458;SDS011;35354;51.296;16.924;2022-08-27T07:59:55;6.40;;;5.10;;
49458;SDS011;35354;51.296;16.924;2022-08-27T08:02:20;9.13;;;5.55;;
49458;SDS011;35354;51.296;16.924;2022-08-27T08:04:45;9.15;;;5.55;;
49458;SDS011;35354;51.296;16.924;2022-08-27T08:07:11;7.85;;;5.03;;
49458;SDS011;35354;51.296;16.924;2022-08-27T08:09:36;9.48;;;4.90;;
49458;SDS011;35354;51.296;16.924;2022-08-27T08:12:02;7.65;;;4.95;;
49458;SDS011;35354;51.296;16.924;2022-08-27T08:14:28;8.50;;;4.70;;
49458;SDS011;35354;51.296;16.924;2022-08-27T08:16:57;9.23;;;5.70;;
49458;SDS011;35354;51.296;16.924;2022-08-27T08:19:25;6.72;;;4.95;;
49458;SDS011;35354;51.296;16.924;2022-08-27T08:21:51;6.82;;;5.45;;
49458;SDS011;35354;51.296;16.924;2022-08-27T08:24:17;11.00;;;5.85;;
49458;SDS011;35354;51.296;16.924;2022-08-27T08:26:42;8.27;;;5.75;;
49458;SDS011;35354;51.296;16.924;2022-08-27T08:29:08;8.20;;;6.32;;
49458;SDS011;35354;51.296;16.924;2022-08-27T08:31:34;8.80;;;5.47;;
49458;SDS011;35354;51.296;16.924;2022-08-27T08:33:59;8.07;;;5.70;;
49458;SDS011;35354;51.296;16.924;2022-08-27T08:36:24;11.00;;;5.80;;
49458;SDS011;35354;51.296;16.924;2022-08-27T08:38:50;10.50;;;6.45;;
49458;SDS011;35354;51.296;16.924;2022-08-27T08:43:46;10.05;;;6.68;;
49458;SDS011;35354;51.296;16.924;2022-08-27T08:57:49;11.68;;;7.32;;
49458;SDS011;35354;51.296;16.924;2022-08-27T09:00:36;9.60;;;6.93;;
49458;SDS011;35354;51.296;16.924;2022-08-27T09:03:03;10.15;;;7.15;;
49458;SDS011;35354;51.296;16.924;2022-08-27T09:05:29;13.98;;;7.28;;
49458;SDS011;35354;51.296;16.924;2022-08-27T09:10:44;14.50;;;8.25;;
49458;SDS011;35354;51.296;16.924;2022-08-27T09:13:20;13.43;;;8.05;;
49458;SDS011;35354;51.296;16.924;2022-08-27T09:15:50;12.20;;;8.20;;
49458;SDS011;35354;51.296;16.924;2022-08-27T09:18:18;9.63;;;7.60;;
49458;SDS011;35354;51.296;16.924;2022-08-27T09:20:44;12.80;;;7.72;;
49458;SDS011;35354;51.296;16.924;2022-08-27T09:23:17;9.68;;;6.97;;
49458;SDS011;35354;51.296;16.924;2022-08-27T09:25:49;9.60;;;6.80;;
49458;SDS011;35354;51.296;16.924;2022-08-27T09:28:19;11.93;;;6.35;;
49458;SDS011;35354;51.296;16.924;2022-08-27T09:31:18;9.80;;;6.70;;
49458;SDS011;35354;51.296;16.924;2022-08-27T09:33:44;9.20;;;6.80;;
49458;SDS011;35354;51.296;16.924;2022-08-27T09:36:12;10.32;;;6.68;;
49458;SDS011;35354;51.296;16.924;2022-08-27T09:38:40;7.07;;;6.38;;
49458;SDS011;35354;51.296;16.924;2022-08-27T09:41:16;11.10;;;6.93;;
49458;SDS011;35354;51.296;16.924;2022-08-27T09:43:55;10.38;;;7.18;;
49458;SDS011;35354;51.296;16.924;2022-08-27T09:46:26;8.43;;;6.57;;
49458;SDS011;35354;51.296;16.924;2022-08-27T09:48:52;8.43;;;6.50;;
49458;SDS011;35354;51.296;16.924;2022-08-27T09:51:19;9.70;;;6.35;;
49458;SDS011;35354;51.296;16.924;2022-08-27T09:53:54;7.00;;;5.88;;
49458;SDS011;35354;51.296;16.924;2022-08-27T09:59:00;8.65;;;6.45;;
49458;SDS011;35354;51.296;16.924;2022-08-27T10:01:28;10.57;;;6.40;;
49458;SDS011;35354;51.296;16.924;2022-08-27T10:04:04;9.90;;;6.30;;
49458;SDS011;35354;51.296;16.924;2022-08-27T10:06:44;8.57;;;6.05;;
49458;SDS011;35354;51.296;16.924;2022-08-27T10:09:12;7.82;;;5.70;;
49458;SDS011;35354;51.296;16.924;2022-08-27T10:11:47;7.70;;;4.88;;
49458;SDS011;35354;51.296;16.924;2022-08-27T10:14:27;10.95;;;5.20;;
49458;SDS011;35354;51.296;16.924;2022-08-27T10:17:04;9.88;;;5.55;;
49458;SDS011;35354;51.296;16.924;2022-08-27T10:25:16;7.90;;;5.32;;
49458;SDS011;35354;51.296;16.924;2022-08-27T10:31:12;9.57;;;4.57;;
49458;SDS011;35354;51.296;16.924;2022-08-27T10:34:07;7.00;;;4.85;;
49458;SDS011;35354;51.296;16.924;2022-08-27T10:52:40;5.13;;;4.18;;
49458;SDS011;35354;51.296;16.924;2022-08-27T10:57:58;6.75;;;4.35;;
49458;SDS011;35354;51.296;16.924;2022-08-27T11:02:59;5.45;;;3.55;;
49458;SDS011;35354;51.296;16.924;2022-08-27T11:05:32;5.15;;;3.50;;
49458;SDS011;35354;51.296;16.924;2022-08-27T11:10:35;7.57;;;4.05;;
49458;SDS011;35354;51.296;16.924;2022-08-27T11:15:34;7.03;;;4.70;;
49458;SDS011;35354;51.296;16.924;2022-08-27T11:23:41;6.28;;;4.72;;
49458;SDS011;35354;51.296;16.924;2022-08-27T11:26:10;5.80;;;4.10;;
49458;SDS011;35354;51.296;16.924;2022-08-27T11:28:38;9.32;;;5.13;;
49458;SDS011;35354;51.296;16.924;2022-08-27T11:31:30;7.85;;;5.05;;
49458;SDS011;35354;51.296;16.924;2022-08-27T11:36:40;6.30;;;4.63;;
49458;SDS011;35354;51.296;16.924;2022-08-27T11:44:47;8.77;;;4.93;;
49458;SDS011;35354;51.296;16.924;2022-08-27T11:47:20;5.18;;;4.40;;
49458;SDS011;35354;51.296;16.924;2022-08-27T11:52:26;7.50;;;4.40;;
49458;SDS011;35354;51.296;16.924;2022-08-27T11:55:11;4.63;;;3.75;;
49458;SDS011;35354;51.296;16.924;2022-08-27T11:57:43;8.05;;;3.97;;
49458;SDS011;35354;51.296;16.924;2022-08-27T12:05:33;10.52;;;3.95;;
49458;SDS011;35354;51.296;16.924;2022-08-27T12:08:09;5.20;;;3.55;;
49458;SDS011;35354;51.296;16.924;2022-08-27T12:16:30;6.97;;;3.40;;
49458;SDS011;35354;51.296;16.924;2022-08-27T12:21:56;4.18;;;3.72;;
49458;SDS011;35354;51.296;16.924;2022-08-27T12:29:56;8.05;;;3.78;;
49458;SDS011;35354;51.296;16.924;2022-08-27T12:37:43;9.68;;;4.18;;
49458;SDS011;35354;51.296;16.924;2022-08-27T12:42:50;4.53;;;3.80;;
49458;SDS011;35354;51.296;16.924;2022-08-27T12:45:27;5.78;;;3.95;;
49458;SDS011;35354;51.296;16.924;2022-08-27T12:47:54;6.22;;;3.90;;
49458;SDS011;35354;51.296;16.924;2022-08-27T12:50:23;5.28;;;3.95;;
49458;SDS011;35354;51.296;16.924;2022-08-27T12:58:11;5.97;;;3.47;;
49458;SDS011;35354;51.296;16.924;2022-08-27T13:03:42;6.07;;;3.70;;
49458;SDS011;35354;51.296;16.924;2022-08-27T13:06:13;7.07;;;3.67;;
49458;SDS011;35354;51.296;16.924;2022-08-27T13:08:43;4.95;;;3.88;;
49458;SDS011;35354;51.296;16.924;2022-08-27T13:13:47;8.98;;;3.75;;
49458;SDS011;35354;51.296;16.924;2022-08-27T13:16:15;5.82;;;3.83;;
49458;SDS011;35354;51.296;16.924;2022-08-27T13:18:45;6.85;;;3.97;;
49458;SDS011;35354;51.296;16.924;2022-08-27T13:23:53;6.22;;;3.75;;
49458;SDS011;35354;51.296;16.924;2022-08-27T13:26:22;4.25;;;3.55;;
49458;SDS011;35354;51.296;16.924;2022-08-27T13:28:50;4.07;;;3.65;;
49458;SDS011;35354;51.296;16.924;2022-08-27T13:31:17;5.72;;;3.42;;
49458;SDS011;35354;51.296;16.924;2022-08-27T13:33:43;5.78;;;3.83;;
49458;SDS011;35354;51.296;16.924;2022-08-27T13:36:10;5.45;;;3.80;;
49458;SDS011;35354;51.296;16.924;2022-08-27T13:38:38;5.88;;;3.65;;
49458;SDS011;35354;51.296;16.924;2022-08-27T13:41:07;6.53;;;3.67;;
49458;SDS011;35354;51.296;16.924;2022-08-27T13:46:01;5.50;;;4.28;;
49458;SDS011;35354;51.296;16.924;2022-08-27T13:48:34;5.68;;;3.63;;
49458;SDS011;35354;51.296;16.924;2022-08-27T13:51:04;4.55;;;3.58;;
49458;SDS011;35354;51.296;16.924;2022-08-27T13:53:31;4.20;;;3.80;;
49458;SDS011;35354;51.296;16.924;2022-08-27T13:56:27;5.18;;;3.92;;
49458;SDS011;35354;51.296;16.924;2022-08-27T13:59:05;6.38;;;4.05;;
49458;SDS011;35354;51.296;16.924;2022-08-27T14:04:26;5.22;;;3.72;;
49458;SDS011;35354;51.296;16.924;2022-08-27T14:07:05;4.78;;;3.60;;
49458;SDS011;35354;51.296;16.924;2022-08-27T14:09:34;5.32;;;3.65;;
49458;SDS011;35354;51.296;16.924;2022-08-27T14:12:07;6.25;;;3.60;;
49458;SDS011;35354;51.296;16.924;2022-08-27T14:14:35;4.30;;;3.50;;
49458;SDS011;35354;51.296;16.924;2022-08-27T14:17:02;5.38;;;3.53;;
49458;SDS011;35354;51.296;16.924;2022-08-27T14:19:30;5.22;;;3.90;;
49458;SDS011;35354;51.296;16.924;2022-08-27T14:21:57;4.53;;;3.78;;
49458;SDS011;35354;51.296;16.924;2022-08-27T14:24:24;5.53;;;3.38;;
49458;SDS011;35354;51.296;16.924;2022-08-27T14:26:51;4.05;;;3.03;;
49458;SDS011;35354;51.296;16.924;2022-08-27T14:29:18;4.68;;;3.65;;
49458;SDS011;35354;51.296;16.924;2022-08-27T14:31:44;11.15;;;4.63;;
49458;SDS011;35354;51.296;16.924;2022-08-27T14:34:10;5.80;;;4.25;;
49458;SDS011;35354;51.296;16.924;2022-08-27T14:36:36;6.05;;;3.95;;
49458;SDS011;35354;51.296;16.924;2022-08-27T14:39:04;6.25;;;4.60;;
49458;SDS011;35354;51.296;16.924;2022-08-27T14:41:31;6.15;;;4.00;;
49458;SDS011;35354;51.296;16.924;2022-08-27T14:43:57;6.32;;;4.22;;
49458;SDS011;35354;51.296;16.924;2022-08-27T14:46:25;5.95;;;4.35;;
49458;SDS011;35354;51.296;16.924;2022-08-27T14:48:57;8.55;;;3.70;;
49458;SDS011;35354;51.296;16.924;2022-08-27T14:51:25;7.65;;;3.85;;
49458;SDS011;35354;51.296;16.924;2022-08-27T14:53:53;5.93;;;3.55;;
49458;SDS011;35354;51.296;16.924;2022-08-27T14:56:20;3.97;;;3.42;;
49458;SDS011;35354;51.296;16.924;2022-08-27T14:58:47;7.93;;;3.67;;
49458;SDS011;35354;51.296;16.924;2022-08-27T15:01:13;7.05;;;3.85;;
49458;SDS011;35354;51.296;16.924;2022-08-27T15:03:42;4.13;;;3.65;;
49458;SDS011;35354;51.296;16.924;2022-08-27T15:06:11;6.15;;;4.07;;
49458;SDS011;35354;51.296;16.924;2022-08-27T15:08:36;25.35;;;9.57;;
49458;SDS011;35354;51.296;16.924;2022-08-27T15:11:01;9.65;;;5.13;;
49458;SDS011;35354;51.296;16.924;2022-08-27T15:13:28;10.70;;;5.38;;
49458;SDS011;35354;51.296;16.924;2022-08-27T15:15:54;9.02;;;4.75;;
49458;SDS011;35354;51.296;16.924;2022-08-27T15:18:19;4.72;;;4.03;;
49458;SDS011;35354;51.296;16.924;2022-08-27T15:20:45;6.40;;;4.25;;
49458;SDS011;35354;51.296;16.924;2022-08-27T15:23:10;4.88;;;4.10;;
49458;SDS011;35354;51.296;16.924;2022-08-27T15:25:38;9.25;;;4.00;;
49458;SDS011;35354;51.296;16.924;2022-08-27T15:28:04;6.28;;;4.00;;
49458;SDS011;35354;51.296;16.924;2022-08-27T15:30:31;4.35;;;3.95;;
49458;SDS011;35354;51.296;16.924;2022-08-27T15:32:56;7.25;;;4.53;;
49458;SDS011;35354;51.296;16.924;2022-08-27T15:35:23;6.65;;;3.65;;
49458;SDS011;35354;51.296;16.924;2022-08-27T15:37:51;7.50;;;4.50;;
49458;SDS011;35354;51.296;16.924;2022-08-27T15:40:17;11.50;;;4.82;;
49458;SDS011;35354;51.296;16.924;2022-08-27T15:42:43;7.60;;;4.70;;
49458;SDS011;35354;51.296;16.924;2022-08-27T15:45:12;5.63;;;4.40;;
49458;SDS011;35354;51.296;16.924;2022-08-27T15:47:38;7.07;;;4.60;;
49458;SDS011;35354;51.296;16.924;2022-08-27T15:50:03;6.93;;;3.80;;
49458;SDS011;35354;51.296;16.924;2022-08-27T15:52:30;5.43;;;3.75;;
49458;SDS011;35354;51.296;16.924;2022-08-27T15:54:56;7.50;;;4.13;;
49458;SDS011;35354;51.296;16.924;2022-08-27T15:57:21;9.43;;;4.25;;
49458;SDS011;35354;51.296;16.924;2022-08-27T15:59:47;5.05;;;4.18;;
49458;SDS011;35354;51.296;16.924;2022-08-27T16:02:14;7.38;;;4.10;;
49458;SDS011;35354;51.296;16.924;2022-08-27T16:04:43;5.13;;;3.60;;
49458;SDS011;35354;51.296;16.924;2022-08-27T16:07:09;5.43;;;4.25;;
49458;SDS011;35354;51.296;16.924;2022-08-27T16:09:35;6.30;;;3.95;;
49458;SDS011;35354;51.296;16.924;2022-08-27T16:12:00;7.10;;;4.15;;
49458;SDS011;35354;51.296;16.924;2022-08-27T16:14:25;7.80;;;4.22;;
49458;SDS011;35354;51.296;16.924;2022-08-27T16:16:51;5.63;;;3.90;;
49458;SDS011;35354;51.296;16.924;2022-08-27T16:19:17;6.50;;;4.00;;
49458;SDS011;35354;51.296;16.924;2022-08-27T16:21:43;7.72;;;3.92;;
49458;SDS011;35354;51.296;16.924;2022-08-27T16:24:09;6.30;;;4.30;;
49458;SDS011;35354;51.296;16.924;2022-08-27T16:26:35;6.90;;;4.30;;
49458;SDS011;35354;51.296;16.924;2022-08-27T16:29:02;6.80;;;3.88;;
49458;SDS011;35354;51.296;16.924;2022-08-27T16:31:28;6.43;;;3.92;;
49458;SDS011;35354;51.296;16.924;2022-08-27T16:33:55;7.95;;;5.57;;
49458;SDS011;35354;51.296;16.924;2022-08-27T16:36:24;7.72;;;6.22;;
49458;SDS011;35354;51.296;16.924;2022-08-27T16:38:54;6.13;;;5.50;;